createdAt,value
2018-05-02T00:00:04.282Z,2.40
2018-05-02T00:02:32.417Z,3.53
2018-05-02T00:04:59.942Z,3.40
2018-05-02T00:07:27.468Z,3.03
2018-05-02T00:09:55.451Z,2.67
2018-05-02T00:12:23.009Z,2.10
2018-05-02T00:14:52.516Z,2.23
2018-05-02T00:17:20.906Z,2.43
2018-05-02T00:19:49.710Z,2.40
2018-05-02T00:22:17.236Z,2.23
2018-05-02T00:24:44.767Z,3.53
2018-05-02T00:27:13.129Z,2.30
2018-05-02T00:29:40.670Z,3.33
2018-05-02T00:32:08.202Z,2.73
2018-05-02T00:34:35.761Z,5.80
2018-05-02T00:37:03.284Z,2.90
2018-05-02T00:39:31.426Z,3.47
2018-05-02T00:41:59.419Z,2.90
2018-05-02T00:44:26.988Z,4.07
2018-05-02T00:46:55.111Z,2.47
2018-05-02T00:49:22.762Z,3.60
2018-05-02T00:51:50.471Z,2.63
2018-05-02T00:54:19.366Z,2.67
2018-05-02T00:56:46.893Z,3.00
2018-05-02T00:59:14.420Z,3.30
2018-05-02T01:01:41.977Z,3.20
2018-05-02T01:04:10.196Z,2.73
2018-05-02T01:06:37.744Z,3.47
2018-05-02T01:09:06.284Z,2.83
2018-05-02T01:11:34.285Z,4.03
2018-05-02T01:14:02.409Z,3.67
2018-05-02T01:16:29.939Z,2.90
2018-05-02T01:18:57.467Z,3.87
2018-05-02T01:21:25.465Z,2.93
2018-05-02T01:23:54.183Z,3.40
2018-05-02T01:26:21.866Z,2.63
2018-05-02T01:28:50.875Z,3.63
2018-05-02T01:31:18.851Z,3.30
2018-05-02T01:33:46.398Z,3.30
2018-05-02T01:36:14.528Z,2.93
2018-05-02T01:38:42.093Z,3.13
2018-05-02T01:41:10.482Z,4.27
2018-05-02T01:43:38.017Z,3.23
2018-05-02T01:46:05.547Z,4.07
2018-05-02T01:48:33.926Z,3.73
2018-05-02T01:51:01.467Z,4.30
2018-05-02T01:53:28.992Z,3.70
2018-05-02T01:55:56.569Z,4.30
2018-05-02T01:58:24.090Z,3.60
2018-05-02T02:00:52.430Z,4.30
2018-05-02T02:03:21.039Z,3.40
2018-05-02T02:05:48.583Z,5.17
2018-05-02T02:08:16.865Z,3.53
2018-05-02T02:10:45.016Z,4.03
2018-05-02T02:13:13.026Z,3.90
2018-05-02T02:15:40.566Z,4.00
2018-05-02T02:18:08.125Z,4.90
2018-05-02T02:20:36.177Z,4.37
2018-05-02T02:23:04.262Z,5.00
2018-05-02T02:25:31.811Z,4.87
2018-05-02T02:27:59.730Z,5.43
2018-05-02T02:30:28.019Z,4.00
2018-05-02T02:32:55.561Z,5.30
2018-05-02T02:35:23.079Z,4.87
2018-05-02T02:37:51.430Z,4.73
2018-05-02T02:40:19.404Z,5.13
2018-05-02T02:42:47.705Z,4.90
2018-05-02T02:45:15.230Z,3.83
2018-05-02T02:47:43.404Z,5.00
2018-05-02T02:50:10.930Z,4.47
2018-05-02T02:52:38.458Z,5.03
2018-05-02T02:55:06.083Z,4.00
2018-05-02T02:57:33.670Z,4.50
2018-05-02T03:00:01.220Z,3.47
2018-05-02T03:02:29.194Z,3.83
2018-05-02T03:04:56.759Z,3.73
2018-05-02T03:07:24.313Z,5.20
2018-05-02T03:09:53.423Z,4.10
2018-05-02T03:12:21.460Z,3.20
2018-05-02T03:14:49.653Z,3.60
2018-05-02T03:17:17.207Z,3.47
2018-05-02T03:19:45.710Z,4.10
2018-05-02T03:22:13.234Z,3.30
2018-05-02T03:24:40.760Z,3.87
2018-05-02T03:27:08.996Z,3.40
2018-05-02T03:29:37.108Z,3.60
2018-05-02T03:32:04.641Z,3.40
2018-05-02T03:34:32.691Z,3.93
2018-05-02T03:37:00.214Z,3.30
2018-05-02T03:39:27.774Z,3.60
2018-05-02T03:41:56.051Z,4.63
2018-05-02T03:44:23.590Z,3.03
2018-05-02T03:46:52.172Z,3.97
2018-05-02T03:49:19.743Z,2.90
2018-05-02T03:51:47.343Z,3.60
2018-05-02T03:54:14.897Z,3.00
2018-05-02T03:56:42.428Z,3.70
2018-05-02T03:59:09.969Z,3.70
2018-05-02T04:01:50.284Z,4.37
2018-05-02T04:04:30.347Z,4.00
2018-05-02T04:07:15.423Z,5.00
2018-05-02T04:09:43.494Z,4.63
2018-05-02T04:12:14.531Z,5.20
2018-05-02T04:14:42.501Z,4.93
2018-05-02T04:17:10.775Z,7.03
2018-05-02T04:19:38.307Z,5.00
2018-05-02T04:22:05.824Z,5.57
2018-05-02T04:24:33.383Z,6.13
2018-05-02T04:27:00.946Z,5.60
2018-05-02T04:29:29.102Z,4.70
2018-05-02T04:31:56.624Z,4.97
2018-05-02T04:37:54.669Z,5.10
2018-05-02T04:40:22.385Z,5.43
2018-05-02T04:42:51.706Z,5.17
2018-05-02T04:45:19.508Z,4.93
2018-05-02T04:47:47.751Z,4.50
2018-05-02T04:50:15.289Z,5.53
2018-05-02T04:52:42.896Z,4.63
2018-05-02T04:55:10.400Z,6.03
2018-05-02T04:57:37.942Z,5.07
2018-05-02T05:00:05.480Z,5.47
2018-05-02T05:02:33.725Z,5.20
2018-05-02T05:05:02.081Z,4.77
2018-05-02T05:07:30.149Z,4.53
2018-05-02T05:09:58.389Z,4.40
2018-05-02T05:12:25.921Z,4.67
2018-05-02T05:14:54.076Z,4.30
2018-05-02T05:17:21.608Z,4.47
2018-05-02T05:19:50.128Z,4.00
2018-05-02T05:22:17.861Z,4.60
2018-05-02T05:24:45.415Z,4.10
2018-05-02T05:27:14.100Z,5.27
2018-05-02T05:29:42.268Z,4.10
2018-05-02T05:32:09.803Z,5.57
2018-05-02T05:34:37.341Z,5.10
2018-05-02T05:37:04.904Z,6.00
2018-05-02T05:39:32.467Z,5.20
2018-05-02T05:42:00.741Z,5.93
2018-05-02T05:44:28.302Z,5.40
2018-05-02T05:46:56.977Z,6.50
2018-05-02T05:49:24.527Z,6.87
2018-05-02T05:51:52.208Z,7.17
2018-05-02T05:54:19.828Z,7.07
2018-05-02T05:56:47.333Z,6.30
2018-05-02T05:59:14.882Z,8.73
2018-05-02T06:01:42.462Z,7.23
2018-05-02T06:04:10.791Z,6.80
2018-05-02T06:06:39.485Z,8.30
2018-05-02T06:09:07.494Z,8.17
2018-05-02T06:11:36.342Z,7.13
2018-05-02T06:14:05.057Z,6.57
2018-05-02T06:16:32.618Z,6.93
2018-05-02T06:19:00.150Z,6.07
2018-05-02T06:21:27.741Z,7.13
2018-05-02T06:23:55.275Z,6.10
2018-05-02T06:26:22.847Z,6.13
2018-05-02T06:28:51.357Z,6.30
2018-05-02T06:31:19.923Z,7.43
2018-05-02T06:33:47.459Z,6.73
2018-05-02T06:36:15.039Z,6.80
2018-05-02T06:38:42.563Z,7.17
2018-05-02T06:41:11.050Z,7.00
2018-05-02T06:43:39.302Z,7.80
2018-05-02T06:46:06.830Z,7.33
2018-05-02T06:48:35.206Z,8.10
2018-05-02T06:51:03.311Z,7.27
2018-05-02T06:53:30.856Z,7.70
2018-05-02T06:55:58.394Z,7.33
2018-05-02T06:58:25.988Z,7.77
2018-05-02T07:00:53.613Z,7.40
2018-05-02T07:03:21.517Z,7.63
2018-05-02T07:05:49.304Z,7.17
2018-05-02T07:08:17.795Z,7.40
2018-05-02T07:10:46.080Z,8.53
2018-05-02T07:13:14.394Z,7.17
2018-05-02T07:15:41.924Z,8.53
2018-05-02T07:18:09.454Z,6.37
2018-05-02T07:20:37.018Z,7.30
2018-05-02T07:23:04.554Z,6.57
2018-05-02T07:25:32.086Z,7.70
2018-05-02T07:28:00.298Z,7.60
2018-05-02T07:30:28.258Z,6.83
2018-05-02T07:32:55.867Z,5.67
2018-05-02T07:35:23.376Z,4.87
2018-05-02T07:37:51.700Z,5.10
2018-05-02T07:40:20.282Z,4.70
2018-05-02T07:42:48.529Z,5.20
2018-05-02T07:45:16.094Z,4.90
2018-05-02T07:47:44.352Z,4.70
2018-05-02T07:50:11.897Z,4.63
2018-05-02T07:52:39.423Z,6.00
2018-05-02T07:55:06.984Z,4.30
2018-05-02T07:57:34.527Z,4.10
2018-05-02T08:00:02.055Z,3.30
2018-05-02T08:02:30.643Z,4.33
2018-05-02T08:04:58.175Z,3.50
2018-05-02T08:07:26.361Z,3.67
2018-05-02T08:09:54.611Z,3.40
2018-05-02T08:12:22.407Z,3.90
2018-05-02T08:14:52.115Z,3.57
2018-05-02T08:17:19.659Z,3.73
2018-05-02T08:19:47.224Z,3.37
2018-05-02T08:22:14.782Z,4.90
2018-05-02T08:24:42.337Z,3.33
2018-05-02T08:27:11.039Z,4.17
2018-05-02T08:29:39.202Z,4.37
2018-05-02T08:32:06.747Z,4.23
2018-05-02T08:34:34.639Z,3.73
2018-05-02T08:37:02.908Z,4.60
2018-05-02T08:39:30.450Z,4.77
2018-05-02T08:41:58.397Z,4.67
2018-05-02T08:44:25.935Z,5.33
2018-05-02T08:46:54.447Z,3.83
2018-05-02T08:49:22.900Z,5.87
2018-05-02T08:51:51.393Z,4.73
2018-05-02T08:54:19.040Z,3.97
2018-05-02T08:56:46.578Z,3.20
2018-05-02T08:59:14.104Z,4.20
2018-05-02T09:01:41.666Z,4.07
2018-05-02T09:04:09.887Z,4.57
2018-05-02T09:06:38.022Z,3.50
2018-05-02T09:09:06.080Z,4.37
2018-05-02T09:11:34.186Z,3.60
2018-05-02T09:14:02.262Z,4.40
2018-05-02T09:16:29.785Z,3.30
2018-05-02T09:18:57.324Z,4.27
2018-05-02T09:21:24.878Z,4.20
2018-05-02T09:23:52.578Z,4.37
2018-05-02T09:26:20.393Z,5.03
2018-05-02T09:28:48.456Z,4.07
2018-05-02T09:31:15.986Z,4.43
2018-05-02T09:33:43.518Z,4.67
2018-05-02T09:36:11.075Z,4.70
2018-05-02T09:38:38.599Z,4.20
2018-05-02T09:41:06.127Z,6.80
2018-05-02T09:43:34.163Z,4.07
2018-05-02T09:46:01.707Z,4.07
2018-05-02T09:48:29.631Z,4.20
2018-05-02T09:50:57.166Z,4.23
2018-05-02T09:53:24.800Z,4.70
2018-05-02T09:55:53.197Z,4.63
2018-05-02T09:58:21.567Z,3.90
2018-05-02T10:00:49.310Z,3.80
2018-05-02T10:03:17.423Z,4.30
2018-05-02T10:05:44.967Z,3.80
2018-05-02T10:08:13.166Z,4.83
2018-05-02T10:10:42.222Z,4.50
2018-05-02T10:13:10.447Z,4.50
2018-05-02T10:15:37.982Z,4.37
2018-05-02T10:18:05.519Z,4.27
2018-05-02T10:20:33.826Z,3.87
2018-05-02T10:23:01.382Z,3.80
2018-05-02T10:25:28.911Z,4.67
2018-05-02T10:27:57.564Z,4.90
2018-05-02T10:30:25.952Z,4.27
2018-05-02T10:32:53.485Z,4.47
2018-05-02T10:35:21.218Z,5.73
2018-05-02T10:37:50.272Z,4.30
2018-05-02T10:40:17.863Z,4.93
2018-05-02T10:42:46.287Z,4.70
2018-05-02T10:45:13.824Z,5.50
2018-05-02T10:47:41.998Z,4.80
2018-05-02T10:50:09.518Z,5.30
2018-05-02T10:52:37.052Z,4.37
2018-05-02T10:55:04.651Z,6.43
2018-05-02T10:57:32.197Z,4.83
2018-05-02T11:00:00.197Z,5.03
2018-05-02T11:02:28.487Z,5.57
2018-05-02T11:04:56.033Z,5.20
2018-05-02T11:07:23.560Z,5.07
2018-05-02T11:09:52.147Z,4.53
2018-05-02T11:12:19.842Z,5.10
2018-05-02T11:14:48.082Z,4.80
2018-05-02T11:17:15.779Z,6.50
2018-05-02T11:19:43.306Z,5.37
2018-05-02T11:22:10.862Z,6.80
2018-05-02T11:24:38.386Z,5.93
2018-05-02T11:27:06.407Z,6.07
2018-05-02T11:29:34.745Z,5.17
2018-05-02T11:32:02.291Z,5.50
2018-05-02T11:34:29.829Z,5.47
2018-05-02T11:36:57.425Z,7.03
2018-05-02T11:39:24.962Z,5.07
2018-05-02T11:41:53.042Z,5.27
2018-05-02T11:44:20.894Z,6.20
2018-05-02T11:46:50.357Z,6.87
2018-05-02T11:49:17.904Z,5.57
2018-05-02T11:51:45.445Z,7.27
2018-05-02T11:54:13.015Z,5.33
2018-05-02T11:56:40.567Z,6.03
2018-05-02T11:59:08.935Z,6.03
2018-05-02T12:01:36.469Z,4.73
2018-05-02T12:04:04.531Z,4.67
2018-05-02T12:06:32.646Z,4.53
2018-05-02T12:09:00.636Z,4.10
2018-05-02T12:11:28.577Z,3.97
2018-05-02T12:13:56.867Z,3.47
2018-05-02T12:16:24.393Z,3.23
2018-05-02T12:18:51.948Z,3.17
2018-05-02T12:21:19.590Z,3.60
2018-05-02T12:23:47.117Z,3.40
2018-05-02T12:26:14.650Z,4.17
2018-05-02T12:28:43.208Z,3.80
2018-05-02T12:31:10.739Z,4.10
2018-05-02T12:33:38.287Z,3.57
2018-05-02T12:36:06.684Z,5.63
2018-05-02T12:38:34.218Z,2.50
2018-05-02T12:41:02.322Z,2.90
2018-05-02T12:43:30.438Z,3.40
2018-05-02T12:45:57.969Z,4.67
2018-05-02T12:48:26.430Z,3.33
2018-05-02T12:50:53.961Z,3.17
2018-05-02T12:53:21.497Z,2.43
2018-05-02T12:55:49.847Z,2.20
2018-05-02T12:58:17.376Z,3.33
2018-05-02T13:00:44.909Z,2.93
2018-05-02T13:03:13.136Z,2.73
2018-05-02T13:05:40.671Z,2.27
2018-05-02T13:08:08.880Z,2.80
2018-05-02T13:10:37.171Z,4.00
2018-05-02T13:13:05.522Z,5.07
2018-05-02T13:15:33.104Z,3.07
2018-05-02T13:18:01.045Z,4.27
2018-05-02T13:20:29.067Z,3.60
2018-05-02T13:22:56.611Z,4.23
2018-05-02T13:25:24.853Z,3.53
2018-05-02T13:27:52.982Z,2.30
2018-05-02T13:30:21.637Z,4.23
2018-05-02T13:32:49.193Z,2.90
2018-05-02T13:35:17.704Z,4.03
2018-05-02T13:37:45.296Z,3.20
2018-05-02T13:40:12.847Z,2.70
2018-05-02T13:42:40.497Z,3.30
2018-05-02T13:45:08.052Z,3.10
2018-05-02T13:47:36.105Z,2.90
2018-05-02T13:50:04.234Z,3.07
2018-05-02T13:52:31.786Z,2.83
2018-05-02T13:54:59.326Z,2.93
2018-05-02T13:57:26.904Z,2.97
2018-05-02T13:59:54.450Z,3.37
2018-05-02T14:02:21.983Z,3.27
2018-05-02T14:04:49.639Z,2.93
2018-05-02T14:07:17.186Z,3.20
2018-05-02T14:09:45.229Z,2.97
2018-05-02T14:12:12.926Z,2.10
2018-05-02T14:14:41.067Z,2.87
2018-05-02T14:17:08.615Z,2.43
2018-05-02T14:19:36.166Z,2.23
2018-05-02T14:22:03.734Z,2.50
2018-05-02T14:24:31.279Z,2.53
2018-05-02T14:26:59.183Z,3.10
2018-05-02T14:29:26.741Z,2.03
2018-05-02T14:31:54.931Z,2.47
2018-05-02T14:34:23.203Z,1.80
2018-05-02T14:36:51.438Z,2.83
2018-05-02T14:39:18.987Z,2.47
2018-05-02T14:41:49.977Z,2.10
2018-05-02T14:44:17.605Z,3.37
2018-05-02T14:46:45.146Z,1.97
2018-05-02T14:49:12.826Z,1.87
2018-05-02T14:51:40.382Z,2.37
2018-05-02T14:54:07.955Z,1.60
2018-05-02T14:56:35.563Z,3.13
2018-05-02T14:59:03.137Z,4.53
2018-05-02T15:01:30.762Z,3.50
2018-05-02T15:03:58.319Z,2.30
2018-05-02T15:06:25.884Z,1.90
2018-05-02T15:08:53.986Z,3.33
2018-05-02T15:11:21.992Z,2.43
2018-05-02T15:13:50.028Z,3.43
2018-05-02T15:16:17.565Z,1.87
2018-05-02T15:18:45.825Z,2.77
2018-05-02T15:21:13.402Z,3.17
2018-05-02T15:23:40.947Z,2.97
2018-05-02T15:26:09.851Z,2.93
2018-05-02T15:28:37.407Z,2.43
2018-05-02T15:31:05.435Z,2.27
2018-05-02T15:33:33.743Z,2.97
2018-05-02T15:36:01.985Z,1.57
2018-05-02T15:38:30.055Z,1.90
2018-05-02T15:40:58.112Z,2.00
2018-05-02T15:43:25.652Z,4.80
2018-05-02T15:45:53.232Z,2.27
2018-05-02T15:48:21.598Z,1.70
2018-05-02T15:50:49.158Z,4.27
2018-05-02T15:53:16.717Z,2.07
2018-05-02T15:55:44.367Z,2.90
2018-05-02T15:58:11.937Z,1.70
2018-05-02T16:00:40.165Z,2.83
2018-05-02T16:03:07.729Z,3.00
2018-05-02T16:05:35.288Z,2.17
2018-05-02T16:08:03.446Z,2.10
2018-05-02T16:10:31.687Z,3.00
2018-05-02T16:12:59.251Z,2.03
2018-05-02T16:15:27.333Z,2.07
2018-05-02T16:17:54.931Z,2.27
2018-05-02T16:20:22.507Z,1.67
2018-05-02T16:22:50.095Z,2.47
2018-05-02T16:25:18.478Z,2.77
2018-05-02T16:27:47.117Z,2.47
2018-05-02T16:30:14.671Z,2.50
2018-05-02T16:32:42.974Z,1.77
2018-05-02T16:35:11.239Z,2.53
2018-05-02T16:37:39.488Z,1.50
2018-05-02T16:40:07.849Z,2.77
2018-05-02T16:42:35.407Z,2.40
2018-05-02T16:45:03.788Z,2.80
2018-05-02T16:47:31.391Z,3.07
2018-05-02T16:49:58.954Z,2.30
2018-05-02T16:52:36.211Z,2.23
2018-05-02T16:55:03.812Z,2.30
2018-05-02T16:57:31.342Z,1.50
2018-05-02T16:59:59.565Z,2.30
2018-05-02T17:02:27.127Z,4.57
2018-05-02T17:04:55.344Z,1.83
2018-05-02T17:07:23.346Z,1.60
2018-05-02T17:09:51.505Z,1.70
2018-05-02T17:12:19.064Z,2.17
2018-05-02T17:14:47.089Z,2.80
2018-05-02T17:17:14.631Z,1.83
2018-05-02T17:19:43.929Z,2.17
2018-05-02T17:22:11.558Z,2.13
2018-05-02T17:24:39.119Z,2.23
2018-05-02T17:27:19.254Z,2.03
2018-05-02T17:29:47.070Z,1.87
2018-05-02T17:32:15.184Z,3.00
2018-05-02T17:34:43.188Z,2.10
2018-05-02T17:37:10.716Z,3.17
2018-05-02T17:39:38.275Z,3.00
2018-05-02T17:42:05.864Z,2.97
2018-05-02T17:44:33.480Z,2.53
2018-05-02T17:47:01.024Z,2.70
2018-05-02T17:49:28.657Z,1.60
2018-05-02T17:51:57.088Z,2.77
2018-05-02T17:54:24.633Z,1.70
2018-05-02T17:56:52.762Z,4.00
2018-05-02T17:59:20.304Z,1.93
2018-05-02T18:01:47.853Z,2.30
2018-05-02T18:04:15.910Z,1.80
2018-05-02T18:06:43.900Z,2.00
2018-05-02T18:09:12.149Z,1.97
2018-05-02T18:11:40.367Z,1.47
2018-05-02T18:14:08.591Z,4.47
2018-05-02T18:16:36.731Z,1.53
2018-05-02T18:19:04.323Z,3.80
2018-05-02T18:21:31.891Z,1.43
2018-05-02T18:23:59.466Z,2.97
2018-05-02T18:26:27.496Z,3.80
2018-05-02T18:28:55.496Z,3.97
2018-05-02T18:31:23.799Z,2.43
2018-05-02T18:33:51.392Z,2.73
2018-05-02T18:36:19.547Z,4.00
2018-05-02T18:38:47.194Z,2.83
2018-05-02T18:41:14.761Z,2.50
2018-05-02T18:43:42.827Z,2.80
2018-05-02T18:46:10.577Z,3.67
2018-05-02T18:48:38.133Z,3.47
2018-05-02T18:51:06.349Z,1.90
2018-05-02T18:53:34.007Z,4.20
2018-05-02T18:56:02.338Z,3.57
2018-05-02T18:58:29.911Z,2.40
2018-05-02T19:00:57.475Z,4.90
2018-05-02T19:03:25.131Z,2.33
2018-05-02T19:05:54.086Z,3.30
2018-05-02T19:08:22.809Z,2.20
2018-05-02T19:10:50.771Z,4.07
2018-05-02T19:13:19.348Z,2.27
2018-05-02T19:15:47.714Z,3.83
2018-05-02T19:18:20.714Z,3.50
2018-05-02T19:20:48.427Z,2.87
2018-05-02T19:23:15.997Z,2.30
2018-05-02T19:25:49.504Z,2.40
2018-05-02T19:28:17.103Z,2.53
2018-05-02T19:30:44.896Z,3.23
2018-05-02T19:33:17.967Z,3.07
2018-05-02T19:35:46.147Z,3.43
2018-05-02T19:38:13.737Z,2.10
2018-05-02T19:40:46.645Z,2.27
2018-05-02T19:43:19.708Z,2.20
2018-05-02T19:45:47.330Z,2.57
2018-05-02T19:48:15.716Z,1.70
2018-05-02T19:50:50.072Z,2.33
2018-05-02T19:53:18.522Z,4.00
2018-05-02T19:55:46.332Z,2.47
2018-05-02T19:58:13.900Z,2.73
2018-05-02T20:00:47.177Z,2.63
2018-05-02T20:03:15.243Z,2.20
2018-05-02T20:05:43.383Z,3.10
2018-05-02T20:08:17.384Z,3.33
2018-05-02T20:10:51.294Z,3.13
2018-05-02T20:13:25.143Z,2.60
2018-05-02T20:15:53.265Z,3.37
2018-05-02T20:18:21.560Z,3.47
2018-05-02T20:20:49.123Z,3.30
2018-05-02T20:23:16.782Z,2.57
2018-05-02T20:25:45.616Z,4.23
2018-05-02T20:28:13.462Z,2.30
2018-05-02T20:30:41.102Z,5.20
2018-05-02T20:33:08.706Z,3.77
2018-05-02T20:35:37.624Z,3.27
2018-05-02T20:38:05.795Z,2.57
2018-05-02T20:40:33.356Z,4.43
2018-05-02T20:43:01.385Z,2.83
2018-05-02T20:45:28.995Z,3.83
2018-05-02T20:47:57.181Z,3.87
2018-05-02T20:50:25.573Z,4.63
2018-05-02T20:52:54.449Z,2.80
2018-05-02T20:55:22.169Z,4.93
2018-05-02T20:57:49.955Z,3.13
2018-05-02T21:00:17.697Z,2.23
2018-05-02T21:02:45.386Z,4.90
2018-05-02T21:05:16.237Z,4.30
2018-05-02T21:07:44.672Z,8.20
2018-05-02T21:10:12.909Z,3.00
2018-05-02T21:12:40.486Z,5.03
2018-05-02T21:15:09.036Z,3.77
2018-05-02T21:17:36.648Z,3.83
2018-05-02T21:20:04.258Z,2.93
2018-05-02T21:22:31.923Z,3.27
2018-05-02T21:24:59.562Z,2.63
2018-05-02T21:27:27.526Z,3.20
2018-05-02T21:29:55.404Z,3.23
2018-05-02T21:32:29.359Z,3.73
2018-05-02T21:34:58.936Z,4.53
2018-05-02T21:37:32.466Z,3.37
2018-05-02T21:40:03.466Z,2.50
2018-05-02T21:42:33.316Z,4.80
2018-05-02T21:45:02.955Z,3.80
2018-05-02T21:47:32.123Z,6.50
2018-05-02T21:52:44.595Z,4.10
2018-05-02T21:55:13.311Z,3.53
2018-05-02T21:57:41.280Z,3.73
2018-05-02T22:00:10.430Z,2.60
2018-05-02T22:02:38.240Z,3.47
2018-05-02T22:05:06.518Z,2.83
2018-05-02T22:07:34.927Z,4.67
2018-05-02T22:10:03.267Z,5.27
2018-05-02T22:12:30.922Z,3.73
2018-05-02T22:14:59.283Z,4.50
2018-05-02T22:17:27.591Z,3.80
2018-05-02T22:19:56.285Z,2.70
2018-05-02T22:22:25.138Z,3.43
2018-05-02T22:24:52.856Z,3.77
2018-05-02T22:27:25.240Z,3.10
2018-05-02T22:29:53.974Z,2.77
2018-05-02T22:32:21.888Z,4.17
2018-05-02T22:34:50.151Z,6.23
2018-05-02T22:37:18.411Z,6.00
2018-05-02T22:43:16.502Z,2.43
2018-05-02T22:45:44.729Z,5.00
2018-05-02T22:48:12.914Z,2.77
2018-05-02T22:50:41.476Z,3.80
2018-05-02T22:53:09.442Z,3.10
2018-05-02T22:55:37.000Z,2.87
2018-05-02T22:58:04.599Z,3.40
2018-05-02T23:00:32.217Z,3.13
2018-05-02T23:02:59.767Z,4.57
2018-05-02T23:05:28.234Z,3.43
2018-05-02T23:07:56.375Z,6.27
2018-05-02T23:10:24.780Z,2.73
2018-05-02T23:12:52.559Z,4.27
2018-05-02T23:15:22.966Z,4.40
2018-05-02T23:17:51.400Z,3.03
2018-05-02T23:20:19.024Z,4.03
2018-05-02T23:22:47.473Z,5.50
2018-05-02T23:25:15.140Z,3.17
2018-05-02T23:27:42.835Z,4.40
2018-05-02T23:30:10.411Z,3.70
2018-05-02T23:32:38.428Z,5.20
2018-05-02T23:35:06.783Z,2.80
2018-05-02T23:37:35.060Z,5.07
2018-05-02T23:40:06.471Z,3.27
2018-05-02T23:42:34.992Z,4.87
2018-05-02T23:45:03.046Z,3.33
2018-05-02T23:47:32.237Z,6.90
2018-05-02T23:50:00.607Z,4.10
2018-05-02T23:52:28.443Z,4.60
2018-05-02T23:54:56.116Z,4.67
2018-05-02T23:57:23.829Z,3.53
2018-05-02T23:59:51.812Z,3.00
